Dades meteomassalio
Diari Summary for Febrer 20, 2017 Units:  Metric    English   Both
« Previous Day
Next Day »
Diari Semanal Mensual Anual Personalitzat
  Maxima: Minima: Mijana:
Temperatura: 14.8 °C 1.9 °C 7.4 °C
Rosada: 8.1 °C 0.9 °C 4.3 °C
Humitat: 94 % 61 % 82 %
Velocitat del vent: 24.1 km/h 0.0 km/h 4.3 km/h
Racha vent: 24.1 km/h - -
Vent:- - WSW
Pressio: 1030.0 hPa 1025.6 hPa -
Pluja: 0.3 mm    
Historical Graphs
 
 
Tabular Data for Febrer 20, 2017
Time Temperature Dew Point Pressure Wind Wind Speed Wind Gust Humidity Rainfall Rate (Hourly) solar Conditions
00:04 2.8 °C 1.8 °C 1029.3 hPa Calm     93 % 0.0 mm 0.0 W/m2 RA
00:09 2.7 °C 1.7 °C 1029.3 hPa Calm     93 % 0.0 mm 0.0 W/m2 CLR
00:14 2.7 °C 1.7 °C 1029.3 hPa Calm     93 % 0.0 mm 0.0 W/m2 CLR
00:20 2.7 °C 1.7 °C 1029.3 hPa Calm     93 % 0.0 mm 0.0 W/m2 CLR
00:25 2.6 °C 1.6 °C 1029.3 hPa Calm     93 % 0.0 mm 0.0 W/m2 CLR
00:30 2.8 °C 1.8 °C 1029.3 hPa Calm     93 % 0.0 mm 0.0 W/m2 CLR
00:35 2.7 °C 1.7 °C 1029.3 hPa Calm     93 % 0.0 mm 0.0 W/m2 CLR
00:40 2.5 °C 1.5 °C 1029.3 hPa Calm     93 % 0.0 mm 0.0 W/m2 CLR
00:45 2.5 °C 1.5 °C 1029.3 hPa Calm     93 % 0.0 mm 0.0 W/m2 CLR
00:50 2.4 °C 1.4 °C 1029.3 hPa Calm     93 % 0.0 mm 0.0 W/m2 CLR
00:55 2.4 °C 1.4 °C 1029.3 hPa Calm     93 % 0.0 mm 0.0 W/m2 CLR
01:00 2.4 °C 1.4 °C 1029.3 hPa SW 5.6 km/h 5.6 km/h 93 % 0.0 mm 0.0 W/m2 CLR
01:05 2.6 °C 1.7 °C 1029.3 hPa Calm     94 % 0.0 mm 0.0 W/m2 CLR
01:10 2.6 °C 1.6 °C 1029.3 hPa Calm     93 % 0.0 mm 0.0 W/m2 CLR
01:15 2.7 °C 1.7 °C 1029.3 hPa Calm     93 % 0.0 mm 0.0 W/m2 CLR
01:20 2.6 °C 1.6 °C 1029.3 hPa Calm     93 % 0.0 mm 0.0 W/m2 CLR
01:25 2.5 °C 1.5 °C 1029.3 hPa Calm     93 % 0.0 mm 0.0 W/m2 CLR
01:30 2.6 °C 1.6 °C 1029.3 hPa Calm     93 % 0.0 mm 0.0 W/m2 CLR
01:35 2.5 °C 1.5 °C 1029.3 hPa Calm     93 % 0.0 mm 0.0 W/m2 CLR
01:40 2.4 °C 1.4 °C 1029.3 hPa Calm     93 % 0.0 mm 0.0 W/m2 CLR
01:41 2.4 °C 1.4 °C 1029.3 hPa Calm     93 % 0.0 mm 0.0 W/m2 CLR
01:46 2.4 °C 1.4 °C 1029.3 hPa Calm     93 % 0.0 mm 0.0 W/m2 CLR
01:51 2.6 °C 1.7 °C 1029.3 hPa Calm     94 % 0.0 mm 0.0 W/m2 CLR
01:56 2.7 °C 1.7 °C 1029.3 hPa Calm     93 % 0.0 mm 0.0 W/m2 CLR
02:01 2.8 °C 1.8 °C 1029.3 hPa Calm     93 % 0.0 mm 0.0 W/m2 CLR
02:06 2.9 °C 2.0 °C 1029.3 hPa Calm     94 % 0.0 mm 0.0 W/m2 CLR
02:11 2.9 °C 1.9 °C 1029.3 hPa Calm     93 % 0.0 mm 0.0 W/m2 CLR
02:16 2.9 °C 1.9 °C 1029.3 hPa Calm     93 % 0.0 mm 0.0 W/m2 CLR
02:21 2.9 °C 1.9 °C 1029.3 hPa Calm     93 % 0.0 mm 0.0 W/m2 CLR
02:26 2.7 °C 1.7 °C 1029.3 hPa Calm     93 % 0.0 mm 0.0 W/m2 CLR
02:31 2.7 °C 1.7 °C 1029.3 hPa Calm     93 % 0.0 mm 0.0 W/m2 CLR
02:36 2.6 °C 1.6 °C 1029.3 hPa Calm     93 % 0.0 mm 0.0 W/m2 CLR
02:41 2.3 °C 1.1 °C 1029.0 hPa Calm     92 % 0.0 mm 0.0 W/m2 CLR
02:46 1.9 °C 0.9 °C 1029.0 hPa Calm     93 % 0.0 mm 0.0 W/m2 CLR
02:51 1.9 °C 0.9 °C 1029.3 hPa Calm     93 % 0.0 mm 0.0 W/m2 CLR
02:56 2.1 °C 1.1 °C 1029.3 hPa Calm     93 % 0.0 mm 0.0 W/m2 CLR
03:01 2.1 °C 1.1 °C 1029.3 hPa Calm     93 % 0.0 mm 0.0 W/m2 CLR
03:06 2.2 °C 1.2 °C 1029.3 hPa Calm     93 % 0.0 mm 0.0 W/m2 CLR
03:11 2.4 °C 1.5 °C 1029.3 hPa Calm     94 % 0.0 mm 0.0 W/m2 CLR
03:16 2.2 °C 1.2 °C 1029.3 hPa Calm     93 % 0.0 mm 0.0 W/m2 CLR
03:21 2.2 °C 1.2 °C 1029.3 hPa Calm     93 % 0.0 mm 0.0 W/m2 CLR
03:26 2.3 °C 1.4 °C 1029.3 hPa Calm     94 % 0.0 mm 0.0 W/m2 CLR
03:31 2.5 °C 1.6 °C 1029.3 hPa Calm     94 % 0.3 mm 0.0 W/m2 RA
03:36 2.8 °C 1.9 °C 1029.0 hPa Calm     94 % 0.3 mm 0.0 W/m2 CLR
03:41 2.8 °C 1.9 °C 1029.0 hPa Calm     94 % 0.3 mm 0.0 W/m2 CLR
03:46 2.7 °C 1.7 °C 1029.0 hPa Calm     93 % 0.3 mm 0.0 W/m2 CLR
03:51 2.7 °C 1.8 °C 1029.0 hPa Calm     94 % 0.3 mm 0.0 W/m2 CLR
03:56 2.6 °C 1.7 °C 1029.0 hPa Calm     94 % 0.3 mm 0.0 W/m2 CLR
04:01 2.6 °C 1.7 °C 1029.0 hPa Calm     94 % 0.3 mm 0.0 W/m2 CLR
04:06 2.5 °C 1.5 °C 1029.0 hPa Calm     93 % 0.3 mm 0.0 W/m2 CLR
04:11 2.4 °C 1.4 °C 1029.0 hPa Calm     93 % 0.3 mm 0.0 W/m2 CLR
04:16 2.4 °C 1.5 °C 1028.7 hPa Calm     94 % 0.3 mm 0.0 W/m2 CLR
04:21 2.4 °C 1.5 °C 1028.7 hPa Calm     94 % 0.3 mm 0.0 W/m2 CLR
04:26 2.4 °C 1.5 °C 1028.7 hPa Calm     94 % 0.3 mm 0.0 W/m2 CLR
04:31 2.4 °C 1.6 °C 1028.7 hPa Calm     94 % 0.0 mm 0.0 W/m2 CLR
04:36 2.4 °C 1.5 °C 1028.7 hPa Calm     94 % 0.0 mm 0.0 W/m2 CLR
04:41 2.4 °C 1.6 °C 1028.7 hPa Calm     94 % 0.0 mm 0.0 W/m2 CLR
04:46 2.5 °C 1.6 °C 1028.7 hPa Calm     94 % 0.0 mm 0.0 W/m2 CLR
04:51 2.5 °C 1.6 °C 1028.7 hPa Calm     94 % 0.0 mm 0.0 W/m2 CLR
04:56 2.5 °C 1.6 °C 1028.7 hPa Calm     94 % 0.0 mm 0.0 W/m2 CLR
05:02 2.6 °C 1.7 °C 1028.7 hPa Calm     94 % 0.0 mm 0.0 W/m2 CLR
05:07 2.6 °C 1.7 °C 1028.7 hPa Calm     94 % 0.0 mm 0.0 W/m2 CLR
05:12 2.6 °C 1.7 °C 1028.7 hPa Calm     94 % 0.0 mm 0.0 W/m2 CLR
05:17 2.6 °C 1.7 °C 1028.7 hPa Calm     94 % 0.0 mm 0.0 W/m2 CLR
05:22 2.7 °C 1.8 °C 1028.7 hPa Calm     94 % 0.0 mm 0.0 W/m2 CLR
05:27 2.7 °C 1.8 °C 1028.7 hPa Calm     94 % 0.0 mm 0.0 W/m2 CLR
05:32 2.7 °C 1.8 °C 1028.7 hPa Calm     94 % 0.0 mm 0.0 W/m2 CLR
05:37 2.6 °C 1.7 °C 1028.7 hPa Calm     94 % 0.0 mm 0.0 W/m2 CLR
05:42 2.6 °C 1.7 °C 1028.7 hPa Calm     94 % 0.0 mm 0.0 W/m2 CLR
05:47 2.4 °C 1.6 °C 1029.0 hPa SW 7.4 km/h 7.4 km/h 94 % 0.0 mm 0.0 W/m2 CLR
05:52 2.5 °C 1.6 °C 1028.7 hPa SW 5.6 km/h 5.6 km/h 94 % 0.0 mm 0.0 W/m2 CLR
05:57 2.5 °C 1.6 °C 1028.7 hPa Calm     94 % 0.0 mm 0.0 W/m2 CLR
06:02 2.5 °C 1.6 °C 1029.0 hPa Calm     94 % 0.0 mm 0.0 W/m2 CLR
06:07 2.5 °C 1.6 °C 1029.0 hPa Calm     94 % 0.0 mm 0.0 W/m2 CLR
06:12 2.5 °C 1.6 °C 1029.0 hPa SW 6.4 km/h 6.4 km/h 94 % 0.0 mm 0.0 W/m2 CLR
06:17 2.6 °C 1.7 °C 1029.0 hPa Calm     94 % 0.0 mm 0.0 W/m2 CLR
06:22 2.6 °C 1.7 °C 1029.0 hPa Calm     94 % 0.0 mm 0.0 W/m2 CLR
06:27 2.6 °C 1.7 °C 1029.0 hPa Calm     94 % 0.0 mm 0.0 W/m2 CLR
06:32 2.7 °C 1.8 °C 1029.0 hPa Calm     94 % 0.0 mm 0.0 W/m2 CLR
06:37 2.7 °C 1.8 °C 1029.0 hPa Calm     94 % 0.0 mm 0.0 W/m2 CLR
06:42 2.6 °C 1.6 °C 1029.0 hPa Calm     93 % 0.0 mm 0.0 W/m2 CLR
06:47 2.6 °C 1.7 °C 1029.0 hPa Calm     94 % 0.0 mm 0.0 W/m2 CLR
06:52 2.9 °C 2.0 °C 1029.0 hPa SW 5.6 km/h 5.6 km/h 94 % 0.0 mm 0.0 W/m2 CLR
06:57 2.9 °C 2.1 °C 1029.0 hPa Calm     94 % 0.0 mm 0.0 W/m2 CLR
07:02 3.1 °C 2.2 °C 1029.0 hPa Calm     94 % 0.0 mm 0.0 W/m2 CLR
07:03 3.1 °C 2.2 °C 1029.0 hPa Calm     94 % 0.0 mm 0.0 W/m2 CLR
07:08 3.0 °C 2.1 °C 1029.0 hPa Calm     94 % 0.0 mm 0.0 W/m2 CLR
07:13 2.8 °C 1.9 °C 1029.0 hPa WSW 3.7 km/h 4.0 km/h 94 % 0.0 mm 0.0 W/m2 CLR
07:18 3.2 °C 2.3 °C 1029.0 hPa Calm     94 % 0.0 mm 0.0 W/m2 CLR
07:23 3.2 °C 2.3 °C 1029.3 hPa Calm     94 % 0.0 mm 0.0 W/m2 CLR
07:28 2.9 °C 1.9 °C 1029.3 hPa Calm     93 % 0.0 mm 0.0 W/m2 CLR
07:33 2.5 °C 1.5 °C 1029.3 hPa Calm     93 % 0.0 mm 0.0 W/m2 CLR
07:38 2.2 °C 1.2 °C 1029.3 hPa Calm     93 % 0.0 mm 0.0 W/m2 OVC
07:43 2.1 °C 1.1 °C 1029.3 hPa Calm     93 % 0.0 mm 0.0 W/m2 OVC
07:48 2.1 °C 1.1 °C 1029.3 hPa Calm     93 % 0.0 mm 5.0 W/m2 OVC
07:53 2.1 °C 1.2 °C 1029.7 hPa Calm     94 % 0.0 mm 9.0 W/m2 BKN
07:58 2.1 °C 1.2 °C 1029.7 hPa Calm     94 % 0.0 mm 12.0 W/m2 BKN
08:03 2.2 °C 1.3 °C 1029.7 hPa Calm     94 % 0.0 mm 16.0 W/m2 BKN
08:08 2.4 °C 1.6 °C 1029.7 hPa Calm     94 % 0.0 mm 21.0 W/m2 BKN
08:14 2.8 °C 1.9 °C 1029.7 hPa WSW 9.3 km/h 9.3 km/h 94 % 0.0 mm 26.0 W/m2 BKN
08:19 3.8 °C 2.9 °C 1029.7 hPa WSW 12.9 km/h 12.9 km/h 94 % 0.0 mm 33.0 W/m2 BKN
08:24 4.6 °C 3.7 °C 1029.7 hPa West 11.1 km/h 11.1 km/h 94 % 0.0 mm 44.0 W/m2 BKN
08:29 5.1 °C 4.2 °C 1029.7 hPa WSW 13.0 km/h 13.0 km/h 94 % 0.0 mm 56.0 W/m2 SCT
08:34 5.6 °C 4.7 °C 1029.7 hPa WSW 11.1 km/h 11.1 km/h 94 % 0.0 mm 69.0 W/m2 SCT
08:39 5.9 °C 4.7 °C 1030.0 hPa WSW 7.4 km/h 7.4 km/h 92 % 0.0 mm 79.0 W/m2 FEW
08:44 6.0 °C 4.7 °C 1030.0 hPa SW 9.3 km/h 9.3 km/h 91 % 0.0 mm 95.0 W/m2 CLR
08:49 6.0 °C 4.7 °C 1030.0 hPa SW 9.3 km/h 9.3 km/h 91 % 0.0 mm 90.0 W/m2 CLR
08:54 5.8 °C 4.3 °C 1030.0 hPa Calm     90 % 0.0 mm 107.0 W/m2 CLR
08:59 5.8 °C 4.5 °C 1030.0 hPa Calm     91 % 0.0 mm 116.0 W/m2 CLR
09:04 6.0 °C 4.7 °C 1030.0 hPa Calm     91 % 0.0 mm 128.0 W/m2 CLR
09:09 6.3 °C 4.9 °C 1030.0 hPa Calm     91 % 0.0 mm 116.0 W/m2 CLR
09:14 6.6 °C 5.2 °C 1030.0 hPa SW 8.0 km/h 8.0 km/h 91 % 0.0 mm 146.0 W/m2 CLR
09:19 6.9 °C 5.4 °C 1030.0 hPa SW 8.0 km/h 8.0 km/h 90 % 0.0 mm 202.0 W/m2 CLR
09:24 7.3 °C 5.7 °C 1030.0 hPa SW 9.3 km/h 9.3 km/h 90 % 0.0 mm 214.0 W/m2 CLR
09:29 7.6 °C 5.9 °C 1030.0 hPa SW 7.4 km/h 7.4 km/h 89 % 0.0 mm 234.0 W/m2 CLR
09:34 7.9 °C 6.0 °C 1030.0 hPa SW 9.7 km/h 9.7 km/h 88 % 0.0 mm 248.0 W/m2 CLR
09:39 8.2 °C 6.2 °C 1030.0 hPa SW 9.7 km/h 9.7 km/h 87 % 0.0 mm 262.0 W/m2 CLR
09:44 8.6 °C 6.4 °C 1030.0 hPa SW 5.6 km/h 5.6 km/h 86 % 0.0 mm 274.0 W/m2 CLR
09:49 9.1 °C 6.3 °C 1030.0 hPa WSW 24.1 km/h 24.1 km/h 83 % 0.0 mm 290.0 W/m2 CLR
09:54 9.3 °C 6.2 °C 1030.0 hPa West 11.3 km/h 11.3 km/h 81 % 0.0 mm 302.0 W/m2 CLR
09:59 9.6 °C 6.3 °C 1030.0 hPa West 20.9 km/h 20.9 km/h 80 % 0.0 mm 316.0 W/m2 CLR
10:04 9.7 °C 6.2 °C 1030.0 hPa West 14.8 km/h 14.8 km/h 79 % 0.0 mm 332.0 W/m2 CLR
10:09 9.8 °C 6.1 °C 1030.0 hPa WSW 18.5 km/h 18.5 km/h 78 % 0.0 mm 343.0 W/m2 CLR
10:14 9.9 °C 6.2 °C 1030.0 hPa SW 12.9 km/h 12.9 km/h 78 % 0.0 mm 352.0 W/m2 CLR
10:19 10.0 °C 6.2 °C 1030.0 hPa SW 16.1 km/h 16.1 km/h 77 % 0.0 mm 366.0 W/m2 CLR
10:24 10.1 °C 6.2 °C 1030.0 hPa West 13.0 km/h 13.0 km/h 77 % 0.0 mm 387.0 W/m2 CLR
10:29 10.2 °C 6.3 °C 1030.0 hPa WSW 13.0 km/h 13.0 km/h 77 % 0.0 mm 390.0 W/m2 CLR
10:34 10.3 °C 6.2 °C 1030.0 hPa WNW 18.5 km/h 18.5 km/h 76 % 0.0 mm 403.0 W/m2 CLR
10:39 10.3 °C 6.5 °C 1030.0 hPa WNW 13.0 km/h 13.0 km/h 77 % 0.0 mm 415.0 W/m2 CLR
10:44 10.4 °C 6.4 °C 1030.0 hPa WNW 13.0 km/h 13.0 km/h 76 % 0.0 mm 420.0 W/m2 CLR
10:49 10.5 °C 6.4 °C 1030.0 hPa West 9.7 km/h 9.7 km/h 76 % 0.0 mm 438.0 W/m2 CLR
10:54 10.6 °C 6.2 °C 1030.0 hPa West 18.5 km/h 18.5 km/h 74 % 0.0 mm 448.0 W/m2 CLR
10:59 10.6 °C 6.3 °C 1030.0 hPa West 18.5 km/h 18.5 km/h 75 % 0.0 mm 464.0 W/m2 CLR
11:04 10.8 °C 6.7 °C 1029.7 hPa NW 18.5 km/h 18.5 km/h 76 % 0.0 mm 471.0 W/m2 CLR
11:09 10.7 °C 6.3 °C 1029.7 hPa WSW 18.5 km/h 18.5 km/h 74 % 0.0 mm 476.0 W/m2 CLR
11:14 10.8 °C 6.3 °C 1029.7 hPa WNW 20.9 km/h 20.9 km/h 74 % 0.0 mm 515.0 W/m2 CLR
11:19 10.9 °C 6.6 °C 1029.7 hPa West 18.5 km/h 18.5 km/h 75 % 0.0 mm 149.0 W/m2 CLR
11:24 11.0 °C 6.7 °C 1029.7 hPa NW 13.0 km/h 13.0 km/h 75 % 0.0 mm 573.0 W/m2 CLR
11:29 11.3 °C 7.3 °C 1029.7 hPa WNW 5.6 km/h 6.0 km/h 76 % 0.0 mm 610.0 W/m2 CLR
11:34 11.4 °C 6.3 °C 1029.7 hPa West 18.5 km/h 18.5 km/h 71 % 0.0 mm 619.0 W/m2 CLR
11:39 11.4 °C 6.7 °C 1029.3 hPa WSW 9.3 km/h 9.3 km/h 73 % 0.0 mm 610.0 W/m2 CLR
11:44 11.6 °C 6.7 °C 1029.3 hPa WSW 12.9 km/h 12.9 km/h 72 % 0.0 mm 629.0 W/m2 CLR
11:49 11.8 °C 6.9 °C 1029.7 hPa WNW 13.0 km/h 13.0 km/h 72 % 0.0 mm 642.0 W/m2 CLR
11:54 11.7 °C 6.2 °C 1029.3 hPa West 18.5 km/h 18.5 km/h 69 % 0.0 mm 153.0 W/m2 CLR
11:59 11.5 °C 6.4 °C 1029.3 hPa West 9.3 km/h 9.3 km/h 71 % 0.0 mm 626.0 W/m2 CLR
12:04 11.8 °C 6.7 °C 1029.3 hPa SW 13.0 km/h 13.0 km/h 71 % 0.0 mm 659.0 W/m2 CLR
12:10 12.0 °C 6.5 °C 1029.3 hPa West 13.0 km/h 13.0 km/h 69 % 0.0 mm 696.0 W/m2 CLR
12:15 12.0 °C 6.7 °C 1029.3 hPa WNW 16.7 km/h 16.7 km/h 70 % 0.0 mm 679.0 W/m2 CLR
12:20 12.3 °C 7.0 °C 1029.3 hPa West 11.1 km/h 11.1 km/h 70 % 0.0 mm 710.0 W/m2 CLR
12:25 12.5 °C 7.2 °C 1029.0 hPa NNW 14.5 km/h 14.5 km/h 70 % 0.0 mm 735.0 W/m2 CLR
12:30 12.4 °C 6.8 °C 1029.0 hPa NW 14.8 km/h 14.8 km/h 69 % 0.0 mm 693.0 W/m2 CLR
12:35 12.4 °C 7.1 °C 1029.0 hPa WNW 14.8 km/h 14.8 km/h 70 % 0.0 mm 703.0 W/m2 CLR
12:40 12.3 °C 6.8 °C 1029.0 hPa NW 14.8 km/h 14.8 km/h 69 % 0.0 mm 192.0 W/m2 CLR
12:45 11.9 °C 6.4 °C 1028.7 hPa WNW 13.0 km/h 13.0 km/h 69 % 0.0 mm 144.0 W/m2 CLR
12:50 11.8 °C 6.5 °C 1028.7 hPa WNW 12.9 km/h 12.9 km/h 70 % 0.0 mm 218.0 W/m2 CLR
12:55 12.0 °C 6.3 °C 1028.7 hPa West 12.9 km/h 12.9 km/h 68 % 0.0 mm 250.0 W/m2 CLR
13:00 11.9 °C 6.2 °C 1028.7 hPa West 14.8 km/h 14.8 km/h 68 % 0.0 mm 670.0 W/m2 CLR
13:05 12.3 °C 6.2 °C 1028.7 hPa WSW 13.0 km/h 13.0 km/h 66 % 0.0 mm 656.0 W/m2 CLR
13:10 12.7 °C 6.9 °C 1028.3 hPa NW 18.5 km/h 18.5 km/h 68 % 0.0 mm 675.0 W/m2 CLR
13:15 12.7 °C 6.5 °C 1028.3 hPa West 13.0 km/h 13.0 km/h 66 % 0.0 mm 673.0 W/m2 CLR
13:20 12.9 °C 6.7 °C 1028.3 hPa WSW 13.0 km/h 13.0 km/h 66 % 0.0 mm 712.0 W/m2 CLR
13:25 13.1 °C 6.7 °C 1028.3 hPa West 14.8 km/h 14.8 km/h 65 % 0.0 mm 703.0 W/m2 CLR
13:30 13.1 °C 6.4 °C 1028.0 hPa WSW 9.3 km/h 9.3 km/h 64 % 0.0 mm 671.0 W/m2 CLR
13:35 13.2 °C 6.6 °C 1028.0 hPa WSW 6.4 km/h 6.4 km/h 64 % 0.0 mm 673.0 W/m2 CLR
13:40 13.5 °C 6.8 °C 1028.0 hPa WSW 11.1 km/h 11.1 km/h 64 % 0.0 mm 673.0 W/m2 CLR
13:45 13.4 °C 6.6 °C 1028.0 hPa West 9.3 km/h 9.3 km/h 63 % 0.0 mm 679.0 W/m2 CLR
13:50 13.5 °C 7.3 °C 1027.7 hPa NNW 13.0 km/h 13.0 km/h 66 % 0.0 mm 638.0 W/m2 CLR
13:55 13.4 °C 7.4 °C 1027.7 hPa NW 9.3 km/h 9.3 km/h 67 % 0.0 mm 615.0 W/m2 CLR
14:00 13.5 °C 7.5 °C 1027.7 hPa NNW 11.3 km/h 11.3 km/h 67 % 0.0 mm 613.0 W/m2 CLR
14:05 13.4 °C 7.6 °C 1027.3 hPa North 18.5 km/h 18.5 km/h 68 % 0.0 mm 626.0 W/m2 CLR
14:10 13.3 °C 7.3 °C 1027.3 hPa NNW 13.0 km/h 13.0 km/h 67 % 0.0 mm 603.0 W/m2 CLR
14:15 13.4 °C 7.7 °C 1027.3 hPa NNW 9.3 km/h 9.3 km/h 68 % 0.0 mm 594.0 W/m2 CLR
14:20 13.6 °C 7.2 °C 1027.0 hPa NW 3.7 km/h   65 % 0.0 mm 610.0 W/m2 CLR
14:25 13.3 °C 6.9 °C 1027.0 hPa North 7.4 km/h 7.4 km/h 65 % 0.0 mm 584.0 W/m2 CLR
14:30 13.3 °C 6.9 °C 1027.0 hPa NE 9.3 km/h 9.3 km/h 65 % 0.0 mm 577.0 W/m2 CLR
14:35 13.4 °C 7.4 °C 1027.0 hPa North 9.7 km/h 9.7 km/h 67 % 0.0 mm 564.0 W/m2 CLR
14:40 13.8 °C 7.3 °C 1027.0 hPa NNW 9.3 km/h 9.3 km/h 65 % 0.0 mm 566.0 W/m2 CLR
14:45 13.9 °C 7.4 °C 1027.0 hPa NNE 7.4 km/h 7.4 km/h 65 % 0.0 mm 554.0 W/m2 CLR
14:50 13.9 °C 7.4 °C 1026.6 hPa NW 7.4 km/h 7.4 km/h 65 % 0.0 mm 538.0 W/m2 CLR
14:55 14.0 °C 7.5 °C 1026.6 hPa NNW 13.0 km/h 13.0 km/h 65 % 0.0 mm 534.0 W/m2 CLR
15:00 13.9 °C 7.2 °C 1026.6 hPa North 3.7 km/h 3.7 km/h 64 % 0.0 mm 527.0 W/m2 CLR
15:05 14.0 °C 7.3 °C 1026.6 hPa North 14.8 km/h 14.8 km/h 64 % 0.0 mm 515.0 W/m2 CLR
15:10 14.1 °C 7.6 °C 1026.6 hPa North 3.7 km/h   65 % 0.0 mm 517.0 W/m2 CLR
15:15 14.3 °C 7.6 °C 1026.6 hPa NW 11.1 km/h 11.1 km/h 64 % 0.0 mm 506.0 W/m2 CLR
15:20 14.4 °C 7.4 °C 1026.3 hPa North 13.0 km/h 13.0 km/h 63 % 0.0 mm 490.0 W/m2 CLR
15:25 14.3 °C 6.9 °C 1026.3 hPa NNW 7.4 km/h 7.4 km/h 61 % 0.0 mm 476.0 W/m2 CLR
15:30 14.4 °C 7.5 °C 1026.3 hPa Calm     63 % 0.0 mm 464.0 W/m2 CLR
15:35 14.6 °C 7.6 °C 1026.3 hPa West 9.3 km/h 9.3 km/h 63 % 0.0 mm 450.0 W/m2 CLR
15:40 14.6 °C 7.3 °C 1026.3 hPa NW 13.0 km/h 13.0 km/h 62 % 0.0 mm 439.0 W/m2 CLR
15:45 14.3 °C 7.1 °C 1026.3 hPa North 5.6 km/h   62 % 0.0 mm 424.0 W/m2 CLR
15:50 14.3 °C 7.3 °C 1026.0 hPa Calm     63 % 0.0 mm 410.0 W/m2 CLR
15:55 14.6 °C 7.3 °C 1026.0 hPa Calm     62 % 0.0 mm 408.0 W/m2 CLR
16:00 14.6 °C 7.6 °C 1026.0 hPa NW 9.3 km/h 9.3 km/h 63 % 0.0 mm 396.0 W/m2 CLR
16:05 14.8 °C 8.1 °C 1026.0 hPa NNW 12.9 km/h 12.9 km/h 64 % 0.0 mm 387.0 W/m2 CLR
16:10 14.6 °C 7.1 °C 1026.0 hPa North 11.3 km/h 11.3 km/h 61 % 0.0 mm 366.0 W/m2 CLR
16:15 14.3 °C 7.1 °C 1026.0 hPa NNE 14.8 km/h 14.8 km/h 62 % 0.0 mm 353.0 W/m2 CLR
16:20 14.1 °C 7.3 °C 1026.0 hPa NNE 5.6 km/h 5.6 km/h 64 % 0.0 mm 348.0 W/m2 CLR
16:25 14.1 °C 7.4 °C 1026.0 hPa North 5.6 km/h 5.6 km/h 64 % 0.0 mm 339.0 W/m2 CLR
16:30 14.3 °C 7.3 °C 1026.0 hPa NNW 11.1 km/h 11.1 km/h 63 % 0.0 mm 323.0 W/m2 CLR
16:35 14.2 °C 7.4 °C 1026.0 hPa North 7.4 km/h 7.4 km/h 64 % 0.0 mm 306.0 W/m2 CLR
16:40 14.3 °C 7.6 °C 1025.6 hPa North 9.3 km/h 9.3 km/h 64 % 0.0 mm 294.0 W/m2 CLR
16:45 14.2 °C 7.5 °C 1025.6 hPa North 9.3 km/h 9.3 km/h 64 % 0.0 mm 281.0 W/m2 CLR
16:50 14.1 °C 7.3 °C 1025.6 hPa NNE 8.0 km/h 8.0 km/h 64 % 0.0 mm 264.0 W/m2 CLR
16:56 14.0 °C 7.5 °C 1025.6 hPa NNW 5.6 km/h 5.6 km/h 65 % 0.0 mm 251.0 W/m2 CLR
17:01 14.1 °C 7.6 °C 1025.6 hPa NW 8.0 km/h 8.0 km/h 65 % 0.0 mm 230.0 W/m2 CLR
17:06 14.1 °C 7.6 °C 1025.6 hPa North 7.4 km/h 7.4 km/h 65 % 0.0 mm 214.0 W/m2 CLR
17:11 13.9 °C 7.2 °C 1025.6 hPa North 7.4 km/h 7.4 km/h 64 % 0.0 mm 204.0 W/m2 CLR
17:16 13.8 °C 7.3 °C 1025.6 hPa North 7.4 km/h 7.4 km/h 65 % 0.0 mm 185.0 W/m2 CLR
17:21 13.8 °C 7.3 °C 1025.6 hPa North 6.4 km/h 6.4 km/h 65 % 0.0 mm 169.0 W/m2 CLR
17:26 13.7 °C 7.1 °C 1025.6 hPa North 5.6 km/h 5.6 km/h 64 % 0.0 mm 151.0 W/m2 CLR
17:31 13.7 °C 7.4 °C 1025.6 hPa Calm     66 % 0.0 mm 135.0 W/m2 CLR
17:36 13.7 °C 7.3 °C 1025.6 hPa NW 5.6 km/h 5.6 km/h 65 % 0.0 mm 120.0 W/m2 CLR
17:41 13.6 °C 7.1 °C 1025.6 hPa North 7.4 km/h 7.4 km/h 65 % 0.0 mm 102.0 W/m2 CLR
17:46 13.5 °C 7.1 °C 1025.6 hPa Calm     65 % 0.0 mm 86.0 W/m2 CLR
17:51 13.4 °C 7.0 °C 1025.6 hPa Calm     65 % 0.0 mm 72.0 W/m2 FEW
17:56 13.4 °C 7.0 °C 1025.6 hPa Calm     65 % 0.0 mm 56.0 W/m2 SCT
18:01 13.3 °C 6.9 °C 1025.6 hPa Calm     65 % 0.0 mm 51.0 W/m2 SCT
18:06 13.3 °C 6.8 °C 1025.6 hPa Calm     65 % 0.0 mm 39.0 W/m2 BKN
18:11 13.3 °C 7.1 °C 1025.6 hPa Calm     66 % 0.0 mm 30.0 W/m2 BKN
18:16 13.2 °C 6.9 °C 1026.0 hPa Calm     66 % 0.0 mm 23.0 W/m2 BKN
18:21 12.9 °C 6.7 °C 1026.0 hPa Calm     66 % 0.0 mm 18.0 W/m2 BKN
18:26 12.7 °C 6.7 °C 1026.0 hPa Calm     67 % 0.0 mm 14.0 W/m2 BKN
18:27 12.6 °C 6.4 °C 1026.0 hPa Calm     66 % 0.0 mm 14.0 W/m2 BKN
18:32 12.4 °C 6.7 °C 1026.0 hPa Calm     68 % 0.0 mm 9.0 W/m2 BKN
18:37 12.1 °C 6.6 °C 1026.0 hPa Calm     69 % 0.0 mm 5.0 W/m2 BKN
18:42 11.6 °C 6.5 °C 1026.0 hPa Calm     71 % 0.0 mm 0.0 W/m2 OVC
18:47 11.2 °C 6.3 °C 1026.0 hPa Calm     72 % 0.0 mm 0.0 W/m2 OVC
18:52 10.8 °C 6.3 °C 1026.0 hPa Calm     74 % 0.0 mm 0.0 W/m2 CLR
18:57 10.5 °C 6.3 °C 1026.3 hPa Calm     75 % 0.0 mm 0.0 W/m2 CLR
19:02 10.3 °C 6.2 °C 1026.3 hPa Calm     76 % 0.0 mm 0.0 W/m2 CLR
19:07 10.2 °C 6.1 °C 1026.3 hPa Calm     76 % 0.0 mm 0.0 W/m2 CLR
19:13 10.0 °C 5.9 °C 1026.3 hPa Calm     76 % 0.0 mm 0.0 W/m2 CLR
19:18 9.8 °C 5.9 °C 1026.6 hPa Calm     77 % 0.0 mm 0.0 W/m2 CLR
19:23 9.6 °C 5.9 °C 1026.6 hPa Calm     78 % 0.0 mm 0.0 W/m2 CLR
19:28 9.4 °C 5.9 °C 1026.6 hPa Calm     79 % 0.0 mm 0.0 W/m2 CLR
19:33 9.2 °C 5.9 °C 1026.6 hPa Calm     80 % 0.0 mm 0.0 W/m2 CLR
19:38 8.9 °C 5.7 °C 1026.6 hPa Calm     80 % 0.0 mm 0.0 W/m2 CLR
19:43 8.7 °C 5.7 °C 1026.6 hPa Calm     81 % 0.0 mm 0.0 W/m2 CLR
19:48 8.4 °C 5.5 °C 1027.0 hPa Calm     82 % 0.0 mm 0.0 W/m2 CLR
19:53 8.2 °C 5.4 °C 1026.6 hPa Calm     83 % 0.0 mm 0.0 W/m2 CLR
19:58 8.0 °C 5.3 °C 1027.0 hPa Calm     83 % 0.0 mm 0.0 W/m2 CLR
19:59 7.9 °C 5.2 °C 1027.0 hPa Calm     83 % 0.0 mm 0.0 W/m2 CLR
20:04 7.7 °C 5.2 °C 1027.0 hPa Calm     84 % 0.0 mm 0.0 W/m2 CLR
20:09 7.6 °C 5.2 °C 1027.0 hPa Calm     85 % 0.0 mm 0.0 W/m2 CLR
20:14 7.3 °C 5.0 °C 1027.0 hPa Calm     85 % 0.0 mm 0.0 W/m2 CLR
20:19 7.2 °C 4.8 °C 1027.0 hPa Calm     85 % 0.0 mm 0.0 W/m2 CLR
20:24 6.9 °C 4.8 °C 1027.0 hPa Calm     86 % 0.0 mm 0.0 W/m2 CLR
20:29 6.8 °C 4.7 °C 1027.0 hPa Calm     86 % 0.0 mm 0.0 W/m2 CLR
20:34 6.7 °C 4.7 °C 1027.0 hPa Calm     87 % 0.0 mm 0.0 W/m2 CLR
20:39 6.6 °C 4.6 °C 1027.3 hPa Calm     87 % 0.0 mm 0.0 W/m2 CLR
20:44 6.4 °C 4.4 °C 1027.0 hPa Calm     87 % 0.0 mm 0.0 W/m2 CLR
20:49 6.3 °C 4.3 °C 1027.3 hPa Calm     87 % 0.0 mm 0.0 W/m2 CLR
20:54 6.2 °C 4.4 °C 1027.3 hPa Calm     88 % 0.0 mm 0.0 W/m2 CLR
20:59 6.2 °C 4.3 °C 1027.3 hPa Calm     88 % 0.0 mm 0.0 W/m2 CLR
21:04 6.1 °C 4.2 °C 1027.3 hPa Calm     88 % 0.0 mm 0.0 W/m2 CLR
21:09 5.9 °C 4.1 °C 1027.3 hPa Calm     88 % 0.0 mm 0.0 W/m2 CLR
21:14 5.9 °C 4.1 °C 1027.3 hPa Calm     88 % 0.0 mm 0.0 W/m2 CLR
21:19 5.8 °C 3.9 °C 1027.3 hPa Calm     88 % 0.0 mm 0.0 W/m2 CLR
21:24 5.7 °C 3.8 °C 1027.7 hPa Calm     88 % 0.0 mm 0.0 W/m2 CLR
21:29 5.6 °C 3.9 °C 1027.7 hPa Calm     89 % 0.0 mm 0.0 W/m2 CLR
21:31 5.6 °C 3.9 °C 1027.7 hPa Calm     89 % 0.0 mm 0.0 W/m2 CLR
21:36 5.6 °C 3.9 °C 1027.7 hPa Calm     89 % 0.0 mm 0.0 W/m2 CLR
21:41 5.6 °C 3.9 °C 1027.7 hPa Calm     89 % 0.0 mm 0.0 W/m2 CLR
21:46 5.4 °C 3.8 °C 1027.7 hPa Calm     89 % 0.0 mm 0.0 W/m2 CLR
21:51 5.3 °C 3.5 °C 1027.7 hPa Calm     88 % 0.0 mm 0.0 W/m2 CLR
21:56 5.1 °C 3.3 °C 1027.7 hPa Calm     88 % 0.0 mm 0.0 W/m2 CLR
22:01 5.0 °C 3.3 °C 1028.0 hPa Calm     89 % 0.0 mm 0.0 W/m2 CLR
22:02 4.9 °C 3.3 °C 1028.0 hPa Calm     89 % 0.0 mm 0.0 W/m2 CLR
22:07 4.9 °C 3.2 °C 1028.0 hPa Calm     89 % 0.0 mm 0.0 W/m2 CLR
22:12 4.8 °C 3.2 °C 1028.0 hPa Calm     89 % 0.0 mm 0.0 W/m2 CLR
22:17 4.8 °C 3.3 °C 1028.0 hPa Calm     90 % 0.0 mm 0.0 W/m2 CLR
22:22 4.8 °C 3.3 °C 1028.0 hPa Calm     90 % 0.0 mm 0.0 W/m2 CLR
22:27 4.7 °C 3.2 °C 1028.0 hPa Calm     90 % 0.0 mm 0.0 W/m2 CLR
22:32 4.6 °C 3.1 °C 1028.0 hPa Calm     90 % 0.0 mm 0.0 W/m2 CLR
22:37 4.5 °C 3.0 °C 1028.0 hPa Calm     90 % 0.0 mm 0.0 W/m2 CLR
22:42 4.4 °C 2.9 °C 1028.0 hPa Calm     90 % 0.0 mm 0.0 W/m2 CLR
22:47 4.3 °C 2.8 °C 1028.0 hPa Calm     90 % 0.0 mm 0.0 W/m2 CLR
22:52 4.3 °C 2.8 °C 1028.3 hPa Calm     90 % 0.0 mm 0.0 W/m2 CLR
22:57 4.2 °C 2.7 °C 1028.3 hPa Calm     90 % 0.0 mm 0.0 W/m2 CLR
23:03 4.2 °C 2.7 °C 1028.3 hPa Calm     90 % 0.0 mm 0.0 W/m2 CLR
23:08 4.1 °C 2.8 °C 1028.3 hPa Calm     91 % 0.0 mm 0.0 W/m2 CLR
23:13 4.1 °C 2.6 °C 1028.3 hPa Calm     90 % 0.0 mm 0.0 W/m2 CLR
23:18 4.1 °C 2.8 °C 1028.3 hPa Calm     91 % 0.0 mm 0.0 W/m2 CLR
23:23 4.2 °C 2.8 °C 1028.3 hPa Calm     91 % 0.0 mm 0.0 W/m2 CLR
23:28 4.2 °C 2.8 °C 1028.3 hPa Calm     91 % 0.0 mm 0.0 W/m2 CLR
23:33 4.1 °C 2.8 °C 1028.3 hPa Calm     91 % 0.0 mm 0.0 W/m2 CLR
23:38 4.1 °C 2.6 °C 1028.3 hPa Calm     90 % 0.0 mm 0.0 W/m2 CLR
23:43 4.1 °C 2.7 °C 1028.3 hPa Calm     91 % 0.0 mm 0.0 W/m2 CLR
23:48 3.9 °C 2.4 °C 1028.3 hPa Calm     90 % 0.0 mm 0.0 W/m2 CLR
23:53 3.8 °C 2.4 °C 1028.3 hPa Calm     91 % 0.0 mm 0.0 W/m2 CLR
23:58 3.7 °C 2.2 °C 1028.3 hPa Calm     90 % 0.0 mm 0.0 W/m2 CLR
Lo Temps de Massalio
Compliments of Weather Underground - 1.25 mb